x

8557380 - Lewes, De (lwsd1) Weather Station

10:30am - Sat 31st Jan 2015 All times are EST. -5 hours from GMT.

  • Wind
    25mph, 32mph gusts
  • Air Temp 22°f
  • Sea Pressure 1024.8mb
  • 8557380 - Lewes, De
  • 8557380 - Lewes, De

More Historic Weather Station data

Upgrade to MSW Pro to gain access to the past 30 days of data for over 8000 Wavebouys and Weather Stations around the globe.

Join Pro

Comparision Forecast

View Surf forecast
   
Sat 01/31 10:30am 25 32 mph 1024.8mb - 22f
10:24am 29 37 mph 1024.8mb - 22f
10:18am 29 34 mph 1024.8mb - 21f
10:12am 29 37 mph 1024.8mb - 21f
10:06am 30 34 mph 1024.8mb - 21f
10:00am 31 34 mph 1024.7mb - 21f
9:54am 30 37 mph 1024.7mb - 21f
9:48am 31 37 mph 1024.7mb 32f 21f
9:42am 26 33 mph 1024.7mb 32f 21f
9:36am 26 31 mph 1024.6mb 32f 20f
9:30am 29 34 mph 1024.5mb 32f 20f
9:24am 24 30 mph 1024.6mb 32f 21f
9:18am 26 32 mph 1024.3mb 32f 20f
9:12am 30 36 mph 1024.3mb 32f 20f
9:06am 29 34 mph 1024.3mb 32f 20f
9:00am 28 37 mph 1024.4mb 32f 20f
8:54am 29 33 mph 1024.3mb 32f 20f
8:48am 28 33 mph 1024.3mb 32f 20f
8:42am 25 29 mph 1024.4mb - 19f
8:36am 29 36 mph 1024.3mb - 19f
8:30am 28 37 mph 1024.4mb 32f 20f
8:24am 28 37 mph 1024.3mb 32f 20f
8:18am 28 31 mph 1024.3mb 32f 20f
8:12am 30 36 mph 1024.1mb - 19f
8:06am 30 37 mph 1024.1mb 32f 19f
8:00am 26 31 mph 1024mb - 20f
7:54am 28 36 mph 1023.9mb - 19f
7:48am 26 31 mph 1023.9mb - 19f
7:42am 30 39 mph 1023.7mb - 19f
7:36am 32 39 mph 1023.6mb - 19f
7:30am 32 39 mph 1023.5mb 32f 20f
7:24am 31 36 mph 1023.3mb 32f 20f
7:18am 31 37 mph 1023.3mb 32f 20f
7:12am 31 39 mph 1023.2mb 32f 20f
7:06am 26 32 mph 1023.2mb 32f 20f
7:00am 28 37 mph 1023mb 32f 20f
6:54am 31 37 mph 1022.9mb 32f 19f
6:48am 30 38 mph 1022.8mb 32f 19f
6:42am 31 38 mph 1022.8mb 32f 19f
6:36am 30 37 mph 1022.8mb 32f 20f
6:30am 31 41 mph 1022.7mb 32f 20f
6:24am 31 37 mph 1022.7mb 32f 20f
6:18am 32 43 mph 1022.7mb 32f 20f
6:12am 32 37 mph 1022.7mb 32f 20f
6:06am 30 37 mph 1022.6mb 32f 20f
6:00am 30 38 mph 1022.5mb 32f 20f
5:54am 30 39 mph 1022.5mb 33f 20f
5:48am 32 39 mph 1022.5mb 33f 20f
5:42am 36 43 mph 1022.5mb 33f 20f
5:36am 34 40 mph 1022.5mb 33f 20f
5:30am 32 40 mph 1022.5mb 33f 20f
5:24am 31 37 mph 1022.3mb 33f 20f
5:18am 33 39 mph 1022.4mb 33f 20f
5:12am 34 43 mph 1022.5mb 33f 20f
5:06am 33 40 mph 1022.5mb 33f 20f
5:00am 34 45 mph 1022.4mb 33f 20f
4:54am 34 41 mph 1022.5mb 33f 20f
4:48am 34 45 mph 1022.5mb 33f 20f
4:42am 37 45 mph 1022.5mb 33f 20f
4:36am 29 34 mph 1022.4mb 33f 20f
4:30am 33 41 mph 1022.5mb 33f 20f
4:24am 33 40 mph 1022.5mb 33f 20f
4:18am 32 41 mph 1022.3mb 33f 20f
4:12am 33 39 mph 1022.2mb 33f 20f
4:06am 36 41 mph 1022.3mb 33f 20f
4:00am 36 43 mph 1022.3mb 34f 20f
3:54am 36 46 mph 1022.2mb 33f 20f
3:48am 32 40 mph 1022.2mb 34f 21f
3:42am 33 39 mph 1022.2mb 34f 20f
3:36am 34 40 mph 1022.2mb 34f 20f
3:30am 36 45 mph 1022.2mb 34f 21f
3:24am 36 43 mph 1022.1mb 34f 21f
3:18am 39 46 mph 1022.1mb 34f 20f
3:12am 39 46 mph 1022.1mb 34f 20f
3:06am 36 43 mph 1022.1mb 34f 21f
3:00am 34 41 mph 1022mb 34f 21f
2:54am 36 45 mph 1021.9mb 34f 21f
2:48am 36 46 mph 1021.8mb 34f 22f
2:42am 38 45 mph 1021.8mb 34f 21f
2:36am 38 44 mph 1021.7mb 35f 21f
2:30am 37 44 mph 1021.8mb 35f 21f
2:24am 34 43 mph 1021.7mb 35f 22f
2:18am 33 40 mph 1021.7mb 35f 22f
2:12am 33 43 mph 1021.8mb 35f 22f
2:06am 37 41 mph 1021.7mb 35f 22f
2:00am 37 41 mph 1021.4mb 35f 22f
1:54am 38 44 mph 1021.5mb 35f 22f
1:48am 37 47 mph 1021.5mb - -
1:42am 33 38 mph 1021.3mb 35f 22f
1:36am 36 40 mph 1021.2mb 35f 23f
1:30am 36 43 mph 1021.1mb 35f 23f
1:24am 38 44 mph 1020.9mb 35f 23f
1:18am 34 44 mph 1020.8mb 35f 23f
1:12am 37 43 mph 1020.7mb 35f 23f
1:06am 29 34 mph 1020.7mb 35f 24f
1:00am 36 41 mph 1020.7mb 35f 23f
12:54am 32 41 mph 1020.6mb 35f 24f
12:48am 33 41 mph 1020.5mb 35f 24f
12:42am 32 38 mph 1020.6mb 35f 24f
12:36am 34 40 mph 1020.5mb 35f 24f
12:30am 34 41 mph 1020.4mb 35f 24f
12:24am 31 38 mph 1020.4mb 35f 24f
12:18am 33 40 mph 1020.4mb 35f 24f
12:12am 33 39 mph 1020.3mb 35f 24f
12:06am 33 40 mph 1020.3mb 35f 24f
12:00am 30 39 mph 1020.3mb 35f 25f
Fri 01/30 11:54pm 31 37 mph 1020.3mb 35f 25f
11:48pm 34 43 mph 1020.2mb 35f 25f
11:42pm 36 43 mph 1020.3mb 35f 25f
11:36pm 34 39 mph 1020.3mb 35f 25f
11:30pm 36 41 mph 1020.2mb 35f 25f
11:24pm 37 45 mph 1020.2mb 35f 25f
11:18pm 36 40 mph 1020.2mb 35f 26f
11:12pm 32 39 mph 1020.2mb 35f 26f
11:06pm 37 43 mph 1020.2mb 35f 26f
11:00pm 30 34 mph 1020.1mb 35f 26f
10:54pm 33 40 mph 1020.1mb 35f 26f
10:48pm 30 34 mph 1020.1mb 35f 26f
10:42pm 37 48 mph 1019.9mb 35f 27f
10:36pm 36 45 mph 1019.8mb 35f 27f
10:30pm 40 48 mph 1019.7mb 36f 27f
10:24pm 36 44 mph 1019.8mb 36f 27f
10:18pm 39 47 mph 1019.6mb 36f -
10:12pm 39 49 mph 1019.6mb 36f -
10:06pm 44 52 mph 1019.3mb 36f -
10:00pm 38 45 mph 1019.4mb 36f 28f
9:54pm 38 45 mph 1019.4mb 36f 28f
9:48pm 43 54 mph 1019.3mb 36f 28f
9:42pm 39 47 mph 1019.4mb 36f 28f
9:36pm 38 46 mph 1019.2mb 36f 29f
9:30pm 38 49 mph 1019mb 36f 29f
9:24pm 39 47 mph 1019.1mb 36f 29f
9:18pm 34 44 mph 1019mb 36f 29f
9:12pm 38 44 mph 1019mb 36f 29f
9:06pm 39 47 mph 1018.8mb 36f 29f
9:00pm 40 47 mph 1018.9mb 36f 29f
8:54pm 36 45 mph 1018.7mb 36f 29f
8:48pm 36 44 mph 1018.7mb 36f 30f
8:42pm 36 45 mph 1018.7mb 36f 30f
8:36pm 33 41 mph 1018.6mb 36f 30f
8:30pm 37 41 mph 1018.5mb 36f 30f
8:24pm 36 43 mph 1018.3mb 36f 30f
8:18pm 38 45 mph 1018.3mb 36f 30f
8:12pm 36 43 mph 1018.3mb 36f 31f
8:06pm 37 45 mph 1018.1mb 36f 31f
8:00pm 37 46 mph 1018.1mb 36f 31f
7:54pm 34 40 mph 1018.3mb 36f 31f
7:48pm 37 43 mph 1017.6mb 36f 31f
7:42pm 36 46 mph 1017.7mb 36f 31f
7:36pm 36 45 mph 1017.6mb 36f 32f
7:30pm 34 41 mph 1018mb 36f 32f
7:24pm 38 45 mph 1017.8mb 36f 32f
7:18pm 37 43 mph 1017.9mb 37f 32f
7:12pm 37 43 mph 1017.8mb 37f 32f
7:06pm 33 40 mph 1017.8mb 37f 33f
7:00pm 33 38 mph 1017.6mb 37f 33f
6:54pm 29 36 mph 1017.5mb 37f 33f
6:48pm 26 32 mph 1017.4mb 37f 33f
6:42pm 30 34 mph 1017.2mb 37f 33f
6:36pm 30 34 mph 1017.1mb 37f 34f
6:30pm 26 31 mph 1017.1mb 37f 34f
6:24pm 32 39 mph 1017mb 37f 34f
6:18pm 31 38 mph 1016.8mb 37f 35f
6:12pm 29 33 mph 1016.8mb 37f 35f
6:06pm 29 33 mph 1016.7mb 37f 35f
6:00pm 26 31 mph 1016.6mb 37f 35f
5:54pm 29 32 mph 1016.4mb 37f 35f
5:48pm 28 32 mph 1016.4mb 37f 35f
5:42pm 22 25 mph 1016.2mb 37f 35f
5:36pm 28 34 mph 1016.1mb 37f 36f
5:30pm 30 34 mph 1016.1mb 37f 36f
5:24pm 29 37 mph 1015.9mb 37f 36f
5:18pm 31 37 mph 1015.8mb 37f 36f
5:12pm 31 40 mph 1015.7mb 37f 36f
5:06pm 34 41 mph 1015.6mb 37f 36f
5:00pm 33 40 mph 1015.5mb 37f 37f
4:54pm 33 38 mph 1015.4mb 37f 37f
4:48pm 32 39 mph 1015.3mb 37f 37f
4:42pm 28 31 mph 1015.1mb 37f 37f
4:36pm 28 32 mph 1014.9mb 37f 37f
4:30pm 28 33 mph 1014.8mb 37f 37f
4:24pm 26 32 mph 1014.6mb 37f 37f
4:18pm 29 37 mph 1014.5mb 37f 37f
4:12pm 26 31 mph 1014.5mb 37f 38f
4:06pm 23 26 mph 1014.4mb 37f 38f
4:00pm 26 31 mph 1014.2mb 37f 38f
3:54pm 26 31 mph 1014.2mb 37f 37f
3:48pm 32 37 mph 1014.2mb 37f 37f
3:42pm 25 37 mph 1014mb 37f 38f
3:36pm 25 28 mph 1013.9mb 37f 38f
3:30pm 25 29 mph 1013.8mb 37f 38f
3:24pm 22 26 mph 1013.8mb 37f 38f
3:18pm 25 30 mph 1013.6mb 37f 38f
3:12pm 30 37 mph 1013.4mb 37f 38f
3:06pm 25 34 mph 1013.3mb 37f 39f
3:00pm 21 28 mph 1013.2mb 37f 38f
2:54pm 28 31 mph 1013.2mb 37f 39f
2:48pm 22 28 mph 1013.1mb 37f 39f
2:42pm 22 25 mph 1013.1mb 37f 39f
2:36pm 24 29 mph 1013mb 37f 39f
2:30pm 20 24 mph 1013mb 37f 39f
2:24pm 20 23 mph 1012.9mb 37f 38f
2:18pm 21 24 mph 1012.9mb 37f 38f
2:12pm 20 23 mph 1012.9mb 37f 38f
2:06pm 20 24 mph 1012.9mb 37f 38f
2:00pm 22 26 mph 1012.8mb 37f 39f
1:54pm 24 30 mph 1012.9mb 37f 38f
1:48pm 18 22 mph 1012.9mb 37f 38f
1:42pm 22 23 mph 1012.9mb 37f 38f
1:36pm 21 25 mph 1012.9mb 37f 38f
1:30pm 21 24 mph 1012.8mb 37f 38f
1:24pm 20 24 mph 1012.8mb 37f 38f
1:18pm 22 24 mph 1012.7mb 37f 38f
1:12pm 20 23 mph 1012.9mb 37f 38f
1:06pm 20 24 mph 1013mb 37f 37f
1:00pm 20 23 mph 1013mb 37f 37f
12:54pm 20 23 mph 1013mb 37f 37f
12:48pm 17 24 mph 1013mb 37f 37f
12:42pm 21 24 mph 1012.9mb 37f 37f
12:36pm 18 23 mph 1013mb 37f 37f
12:30pm 17 21 mph 1013.1mb 37f 37f
12:24pm 7 22 mph 1013.3mb 37f 38f
12:18pm 18 22 mph 1013.4mb 37f 38f
12:12pm 21 24 mph 1013.4mb 37f 38f
12:06pm 22 24 mph 1013.5mb 36f 38f
12:00pm 24 30 mph 1013.5mb 36f 38f
11:54am 22 26 mph 1013.5mb 36f 38f
11:48am 22 25 mph 1013.5mb 36f 38f
11:42am 21 23 mph 1013.6mb 36f 38f
11:36am 21 23 mph 1013.7mb 36f 38f
11:30am 22 25 mph 1013.8mb 36f 38f
11:24am 18 23 mph 1013.9mb 36f 38f
11:18am 18 23 mph 1013.9mb 36f 38f
11:12am 20 23 mph 1014mb 36f 38f
11:06am 21 25 mph 1014.1mb 36f 38f
11:00am 23 28 mph 1014mb 36f 38f
10:54am 21 24 mph 1014.1mb 36f 38f
10:48am 18 22 mph 1014.2mb 36f 37f
10:42am 20 24 mph 1014.2mb 36f 37f
10:36am 18 22 mph 1014.2mb 36f 37f
10:30am 22 28 mph 1014.2mb 36f 38f
10:24am 23 30 mph 1014.2mb 36f 38f
10:18am 20 24 mph 1014.1mb 36f 37f
10:12am 22 28 mph 1014.1mb 36f 38f
10:06am 23 31 mph 1014.1mb 36f 37f
10:00am 24 28 mph 1014.1mb 36f 37f
9:54am 25 31 mph 1014.1mb 36f 37f
9:48am 26 33 mph 1014mb 36f 37f
9:42am 29 32 mph 1013.9mb 36f 37f
9:36am 25 32 mph 1013.9mb 36f 37f
9:30am 26 33 mph 1013.8mb 36f 37f
9:24am 26 31 mph 1013.8mb 36f 37f
9:18am 22 31 mph 1013.6mb 37f 37f
9:12am 25 29 mph 1013.5mb 36f 37f
9:06am 26 32 mph 1013.4mb 37f 37f
9:00am 25 30 mph 1013.4mb 37f 37f
8:54am 9 29 mph 1013.6mb 37f 38f
8:48am 24 30 mph 1013.6mb 37f 37f
8:42am 23 28 mph 1013.5mb 37f 38f
8:36am 25 30 mph 1013.4mb 37f 38f
8:30am 25 30 mph 1013.3mb 37f 38f
8:24am 22 25 mph 1013.3mb 37f 38f
8:18am 20 24 mph 1013.1mb 37f 38f
8:12am 18 22 mph 1013.2mb 37f 38f
8:06am 20 24 mph 1012.8mb 36f 38f
8:00am 21 24 mph 1012.9mb 37f 38f
7:54am 20 24 mph 1012.9mb 36f 38f
7:48am 18 21 mph 1013mb 36f 38f
7:42am 16 20 mph 1013mb 36f 38f
7:36am 20 22 mph 1012.9mb 36f 38f
7:30am 16 18 mph 1012.9mb 36f 38f
7:24am 17 18 mph 1012.9mb 36f 38f
7:18am 15 16 mph 1012.8mb 36f 38f
7:12am 15 17 mph 1012.7mb 36f 38f
7:06am 15 17 mph 1012.7mb 36f 38f
7:00am 15 17 mph 1012.7mb 36f 38f
6:54am 15 16 mph 1012.5mb 36f 38f
6:48am 14 16 mph 1012.4mb 36f 38f
6:42am 15 16 mph 1012.4mb 36f 38f
6:36am 16 17 mph 1012.2mb 36f 38f
6:30am 15 17 mph 1012.2mb 36f 39f
6:24am 15 18 mph 1012.1mb 36f 39f
6:18am 16 18 mph 1012.2mb 36f 39f
6:12am 15 18 mph 1012.1mb 36f 39f
6:06am 16 20 mph 1012.1mb 36f 39f
6:00am 17 21 mph 1012.1mb 36f 39f
5:54am 16 18 mph 1012.1mb 36f 39f
5:48am 16 20 mph 1012.1mb 36f 39f
5:42am 14 17 mph 1012.1mb 36f 39f
5:36am 15 20 mph 1012mb 36f 39f
5:30am 13 18 mph 1011.9mb 36f 39f
5:24am 14 15 mph 1011.9mb 36f 39f
5:18am 14 20 mph 1011.8mb 36f 39f
5:12am 11 15 mph 1011.7mb 36f 39f
5:06am 13 16 mph 1011.8mb 36f 39f
5:00am 13 15 mph 1011.8mb 36f 39f
4:54am 11 15 mph 1011.8mb 36f 39f
4:48am 14 16 mph 1011.7mb 36f 39f
4:42am 10 14 mph 1011.7mb 36f 39f
4:36am 13 18 mph 1011.6mb 36f 39f
4:30am 11 16 mph 1011.5mb 36f 40f
4:24am 10 15 mph 1011.4mb 36f 40f
4:18am 13 17 mph 1011.4mb 36f 40f
4:12am 11 15 mph 1011.5mb 36f 40f
4:06am 10 15 mph 1011.5mb 36f 40f
4:00am 11 14 mph 1011.5mb 36f 40f
3:54am 11 18 mph 1011.5mb 36f 40f
3:48am 10 14 mph 1011.6mb 36f 40f
3:42am 10 15 mph 1011.7mb 36f 40f
3:36am 8 13 mph 1011.7mb 36f 40f
3:30am 10 14 mph 1011.8mb 36f 40f
3:24am 6 9 mph 1011.8mb 36f 40f
3:18am 6 8 mph 1011.9mb 36f 40f
3:12am 7 10 mph 1012.1mb 36f 40f
3:06am 6 9 mph 1012.1mb 36f 40f
3:00am 5 7 mph 1012.2mb 36f 40f
2:54am 5 7 mph 1012.3mb 36f 40f
2:48am 5 8 mph 1012.4mb 36f 40f
2:42am 6 8 mph 1012.4mb 36f 40f
2:36am 8 14 mph 1012.4mb 36f 40f
2:30am 5 9 mph 1012.5mb 36f 40f
2:24am 3 6 mph 1012.5mb 36f 40f
2:18am 5 7 mph 1012.6mb 36f 40f
2:12am 5 7 mph 1012.6mb 36f 40f
2:06am 5 8 mph 1012.6mb 36f 40f
2:00am 5 9 mph 1012.6mb 36f 40f
1:54am 5 8 mph 1012.6mb 36f 40f
1:48am 3 7 mph 1012.7mb 36f -
1:42am 5 9 mph 1012.8mb 36f -
1:36am 5 8 mph 1012.9mb 36f -
1:30am 7 10 mph 1013mb 36f 40f
1:24am 3 7 mph 1013mb 36f 40f
1:18am 7 10 mph 1012.9mb 36f 40f
1:12am 6 10 mph 1013mb 36f 40f
1:06am 6 10 mph 1013.1mb 36f 40f
1:00am 7 10 mph 1013.3mb 36f 40f
12:54am 6 11 mph 1013.2mb 36f 39f
12:48am 6 10 mph 1013.2mb 36f 39f
12:42am 7 13 mph 1013.4mb 36f 39f
12:36am 8 14 mph 1013.5mb 36f 39f
12:30am 8 14 mph 1013.8mb 36f 39f
12:24am 8 14 mph 1013.9mb 36f 39f
12:18am 7 10 mph 1014mb 36f 39f
12:12am 8 13 mph 1014.1mb 36f 39f
12:06am 9 16 mph 1014.3mb 36f 38f
12:00am 7 11 mph 1014.5mb 36f 38f
Thu 01/29 11:54pm 7 14 mph 1014.6mb 36f 38f
11:48pm 9 14 mph 1014.6mb 36f 38f
11:42pm 8 16 mph 1014.9mb 36f 38f
11:36pm 6 10 mph 1015mb 36f 38f
11:30pm 9 13 mph 1015mb 36f 38f
11:24pm 6 10 mph 1015.2mb 36f 37f
11:18pm 7 14 mph 1015.3mb 36f 37f
11:12pm 7 10 mph 1015.5mb 36f 37f
11:06pm 5 9 mph 1015.6mb 36f 37f
11:00pm 7 13 mph 1015.8mb 36f 37f
10:54pm 7 10 mph 1015.9mb 36f 37f
10:48pm 8 13 mph 1016mb 36f 37f
10:42pm 8 14 mph 1015.9mb 36f 37f
10:36pm 7 13 mph 1016.1mb 36f 36f
10:30pm 6 10 mph 1016.3mb 36f 36f
10:24pm 7 10 mph 1016.5mb 36f 36f
10:18pm 8 13 mph 1016.3mb 36f 36f
10:12pm 9 13 mph 1016.4mb 36f 36f
10:06pm 8 11 mph 1016.7mb 36f 36f
10:00pm 8 14 mph 1016.8mb 36f 36f
9:54pm 7 10 mph 1017mb 36f 35f
9:48pm 7 10 mph 1017.2mb 36f 35f
9:42pm 5 8 mph 1017.3mb 36f 35f
9:36pm 8 13 mph 1017.4mb 36f 35f
9:30pm 7 11 mph 1017.5mb 36f 35f
9:24pm 8 11 mph 1017.5mb 36f 35f
9:18pm 9 14 mph 1017.5mb 36f 35f
9:12pm 7 9 mph 1017.6mb 36f 35f
9:06pm 7 10 mph 1017.8mb 36f 35f
9:00pm 7 9 mph 1018mb 36f 35f
8:54pm 7 11 mph 1018mb 36f 35f
8:48pm 6 8 mph 1018.1mb 35f 34f
8:42pm 7 10 mph 1018.2mb 35f 34f
8:36pm 6 8 mph 1018.4mb 35f 34f
8:30pm 8 10 mph 1018.6mb 35f 34f
8:24pm 7 10 mph 1018.7mb 36f 34f
8:18pm 5 7 mph 1019.1mb 36f 34f
8:12pm 6 11 mph 1019.1mb 36f 34f
8:06pm 6 10 mph 1019.1mb 36f 35f
8:00pm 6 9 mph 1019.2mb 36f 35f
7:54pm 7 10 mph 1019.4mb 36f 35f
7:48pm 7 9 mph 1019.4mb 36f 35f
7:42pm 6 9 mph 1019.4mb 36f 35f
7:36pm 3 7 mph 1019.5mb 36f 35f
7:30pm 7 10 mph 1019.7mb 36f 35f
7:24pm 8 11 mph 1019.6mb 36f 35f
7:18pm 7 10 mph 1019.6mb 36f 35f
7:12pm 5 8 mph 1019.7mb 36f 35f
7:06pm 8 13 mph 1019.6mb 36f 35f
7:00pm 7 10 mph 1019.5mb 36f 34f
6:54pm 8 13 mph 1019.5mb 36f 34f
6:48pm 7 10 mph 1019.4mb 36f 34f
6:42pm 8 15 mph 1019.5mb 36f 34f
6:36pm 9 15 mph 1019.7mb 36f 34f
6:30pm 10 15 mph 1019.9mb 36f 34f
6:24pm 8 14 mph 1020mb 36f 34f
6:18pm 9 11 mph 1019.8mb 36f 34f
6:12pm 8 14 mph 1020mb 36f 34f
6:06pm 9 14 mph 1020mb 36f 34f
6:00pm 7 10 mph 1020.3mb 36f 34f
5:54pm 8 13 mph 1020.2mb 36f 34f
5:48pm 9 14 mph 1020.1mb 36f 34f
5:42pm 8 11 mph 1020.3mb 36f 34f
5:36pm 9 11 mph 1019.9mb 36f 34f
5:30pm 7 11 mph 1020.2mb 36f 34f
5:24pm 8 10 mph 1020.5mb 36f 34f
5:18pm 9 11 mph 1020.4mb 36f 34f
5:12pm 9 14 mph 1020.6mb 36f 34f
5:06pm 9 13 mph 1020.6mb 35f 34f
5:00pm 8 10 mph 1021.1mb 35f 35f
4:54pm 9 13 mph 1021.3mb 35f 35f
4:48pm 5 8 mph 1021.5mb 35f 35f
4:42pm 8 10 mph 1021.1mb 35f 35f
4:36pm 8 13 mph 1021.1mb 35f 35f
4:30pm 8 13 mph 1021.2mb 35f 35f
4:24pm 7 10 mph 1021.2mb 35f 35f
4:18pm 7 9 mph 1021.2mb 35f 35f
4:12pm 7 10 mph 1021.3mb 35f 35f
4:06pm 6 8 mph 1021.3mb 35f 35f
4:00pm 8 10 mph 1021.3mb 35f 35f
3:54pm 8 10 mph 1021.4mb 35f 35f
3:48pm 7 9 mph 1021.6mb 35f 35f
3:42pm 7 9 mph 1021.7mb 35f 35f
3:36pm 6 7 mph 1021.8mb 35f 35f
3:30pm 8 11 mph 1021.8mb 35f 34f
3:24pm 9 13 mph 1021.7mb 35f 34f
3:18pm 8 13 mph 1021.7mb 35f 34f
3:12pm 9 14 mph 1021.7mb 35f 34f
3:06pm 8 11 mph 1021.7mb 35f 34f
3:00pm 9 14 mph 1021.8mb 35f 34f
2:54pm 7 11 mph 1021.9mb 35f 35f
2:48pm 7 10 mph 1022mb 35f 35f
2:42pm 7 11 mph 1022mb 35f 35f
2:36pm 7 11 mph 1022mb 35f 35f
2:30pm 8 11 mph 1022.4mb 35f 34f
2:24pm 7 9 mph 1022.6mb 35f 34f
2:18pm 7 10 mph 1022.5mb 35f 34f
2:12pm 7 9 mph 1022.5mb 35f 34f
2:06pm 8 10 mph 1022.5mb 35f 34f
2:00pm 7 10 mph 1022.6mb 35f 34f
1:54pm 5 6 mph 1022.7mb 35f 35f
1:48pm 7 10 mph 1022.6mb 34f 35f
1:30pm 6 8 mph 1023.4mb 34f 34f
1:24pm 5 8 mph 1023.4mb 34f 34f
1:18pm 7 9 mph 1023.3mb 34f 34f
1:12pm 7 8 mph 1023.4mb 34f 34f
1:06pm 8 9 mph 1023.4mb 34f 34f
1:00pm 8 10 mph 1023.5mb 34f 34f
12:54pm 6 8 mph 1023.8mb 34f 34f
12:48pm 3 9 mph 1024mb 34f 34f
12:42pm 7 8 mph 1024.1mb 34f 34f
12:36pm 6 7 mph 1024.3mb 34f 33f
12:30pm 6 8 mph 1024.6mb 35f 33f
12:24pm 5 7 mph 1024.8mb 36f 33f
12:18pm 6 8 mph 1024.9mb 36f 33f
12:12pm 7 9 mph 1025mb 36f 33f
12:06pm 7 10 mph 1025mb 36f 33f
12:00pm 8 10 mph 1025mb 36f 33f
11:54am 6 8 mph 1025.1mb 36f 33f
11:48am 6 9 mph 1025.3mb 36f 33f
11:42am 6 9 mph 1025.3mb 36f 32f
11:36am 8 10 mph 1025.3mb 36f 32f
11:30am 6 10 mph 1025.5mb 36f 32f
11:24am 6 7 mph 1025.7mb 36f 32f
11:18am 7 9 mph 1025.9mb 36f 32f
11:12am 7 8 mph 1026mb 36f 32f
11:06am 8 10 mph 1026.1mb 36f 32f
11:00am 7 9 mph 1026.2mb 36f 32f
10:54am 7 10 mph 1026.4mb 35f 31f
10:48am 6 8 mph 1026.5mb 35f 31f
10:00am 7 8 mph 1026.9mb 34f 29f
9:54am 5 7 mph 1027mb 34f 29f
9:48am 7 8 mph 1026.9mb 34f 29f
9:42am 8 9 mph 1026.8mb 34f 28f
9:36am 8 9 mph 1026.9mb 34f 28f
9:30am 7 8 mph 1026.9mb 35f 28f
9:24am 7 8 mph 1027mb 36f 28f
9:18am 7 8 mph 1027.1mb 36f 28f
9:12am 6 8 mph 1027.2mb 36f 28f
9:06am 7 8 mph 1027.3mb 36f 28f
9:00am 7 8 mph 1027.2mb 36f 28f
8:54am 8 9 mph 1027.1mb 36f 28f
8:48am 8 10 mph 1027mb 36f 28f
8:42am 8 10 mph 1027.1mb 36f 28f
8:36am 8 9 mph 1027.2mb 35f 28f
8:30am 8 10 mph 1027.4mb 35f 28f
8:24am 8 10 mph 1027.5mb 34f 29f
8:18am 9 10 mph 1027.6mb 34f 29f
8:12am 7 9 mph 1027.5mb 35f 29f
8:06am 8 9 mph 1027.5mb 35f 29f
8:00am 9 10 mph 1027.4mb 35f 29f
7:54am 9 11 mph 1027.5mb 36f 29f
7:48am 9 10 mph 1027.4mb 36f 29f
7:42am 9 10 mph 1027.4mb 36f 29f
7:36am 9 10 mph 1027.4mb 36f 29f
7:30am 8 10 mph 1027.6mb 36f 29f
7:24am 8 9 mph 1027.5mb 36f 29f
7:18am 8 9 mph 1027.4mb 36f 29f
7:12am 8 10 mph 1027.4mb 36f 29f
7:06am 9 10 mph 1027.4mb 36f 29f
7:00am 8 10 mph 1027.4mb 36f 29f
6:54am 9 10 mph 1027.3mb 36f 29f
6:48am 7
mph
1027.2mb 36f 29f
6:42am 8 11 mph 1027.2mb 36f 29f
6:36am 9 10 mph 1027.1mb 36f 29f
6:30am 9 11 mph 1027mb 36f 29f
6:24am 9 11 mph 1026.9mb 36f 29f
6:18am 9 11 mph 1026.8mb 36f 29f
6:12am 10 11 mph 1026.8mb 36f 29f
6:06am 9 11 mph 1026.5mb 36f 29f
6:00am 10 11 mph 1026.5mb 36f 29f
5:54am 10 11 mph 1026.5mb 36f 29f
5:48am 10 11 mph 1026.5mb 36f 29f
5:42am 10 13 mph 1026.5mb 36f 29f
5:36am 10 11 mph 1026.5mb 36f 29f
5:30am 11 13 mph 1026.4mb 36f 29f
5:24am 10 13 mph 1026.4mb 36f 30f
5:18am 9 10 mph 1026.5mb 36f 30f
5:12am 10 11 mph 1026.5mb 36f 30f
5:06am 10 14 mph 1026.5mb 36f 30f
5:00am 11 13 mph 1026.5mb 36f 30f
4:54am 11 14 mph 1026.5mb 36f 30f
4:48am 11 13 mph 1026.4mb 36f 30f
4:42am 11 14 mph 1026.4mb 36f 30f
4:36am 11 13 mph 1026.5mb 36f 30f
4:30am 11 13 mph 1026.5mb 36f 30f
4:24am 10 13 mph 1026.4mb 36f 30f
4:18am 11 14 mph 1026.4mb 36f 30f
4:12am 11 14 mph 1026.3mb 36f 30f
4:06am 11 13 mph 1026.3mb 36f 30f
4:00am 13 14 mph 1026.4mb 36f 30f
3:54am 13 15 mph 1026.3mb 35f 30f
3:48am 14 17 mph 1026.4mb 35f 31f
3:42am 14 17 mph 1026.4mb 35f 31f
3:36am 16 17 mph 1026.4mb 35f 31f
3:30am 16 17 mph 1026.3mb 35f 31f
3:24am 16 18 mph 1026.3mb 35f 31f
3:18am 15 17 mph 1026.2mb 35f 31f
3:12am 17 20 mph 1026.3mb 34f 31f
3:06am 15 17 mph 1026.2mb 34f 31f
3:00am 16 17 mph 1026.1mb 34f 31f
2:54am 16 17 mph 1026.2mb 34f 31f
2:48am 16 18 mph 1026.2mb 34f 31f
2:42am 14 17 mph 1026.3mb 34f 31f
2:36am 13 15 mph 1026.4mb 34f 31f
2:30am 10 14 mph 1026.4mb 34f 30f
2:24am 11 13 mph 1026.5mb 34f 30f
2:18am 11 14 mph 1026.4mb 34f 30f
2:12am 10 15 mph 1026.5mb 34f 30f
2:06am 11 14 mph 1026.5mb 33f 30f
2:00am 11 14 mph 1026.5mb 33f 29f
1:54am 13 15 mph 1026.5mb 33f 29f
1:48am 13 16 mph 1026.5mb 33f 29f
1:42am 11 14 mph 1026.4mb 33f 29f
1:36am 13 14 mph 1026.4mb 33f 29f
1:30am 15 16 mph 1026.2mb 33f 29f
1:24am 15 17 mph 1026.1mb 33f 29f
1:18am 14 16 mph 1026mb 33f 29f
1:12am 15 17 mph 1026mb 33f 29f
1:06am 15 16 mph 1026mb 33f 29f
1:00am 13 15 mph 1025.9mb 33f 31f
12:54am 11 15 mph 1025.9mb 33f 31f
12:48am 18 21 mph 1025.8mb 34f 32f
12:42am 11 15 mph 1025.8mb 34f 31f
12:36am 14 15 mph 1025.7mb 34f 30f
12:30am 13 14 mph 1025.8mb 34f 30f
12:24am 11 14 mph 1025.9mb 34f 30f
12:18am 14 15 mph 1026mb 34f 30f
12:12am 14 15 mph 1026mb 34f 30f
12:06am 13 14 mph 1026mb 34f 30f
12:00am 15 17 mph 1026mb 34f 31f
Wed 01/28 11:54pm 15 17 mph 1026mb 34f 30f
11:48pm 14 16 mph 1025.9mb 34f 30f
11:42pm 14 16 mph 1026mb 34f 30f
11:36pm 14 16 mph 1026mb 34f 30f
11:30pm 14 16 mph 1026mb 34f 30f
11:24pm 14 16 mph 1025.9mb 34f 31f
11:18pm 14 16 mph 1026mb 34f 31f
11:12pm 15 17 mph 1025.8mb 34f 31f
11:06pm 13 15 mph 1025.8mb 34f 31f
11:00pm 13 15 mph 1025.7mb 34f 31f
10:54pm 14 15 mph 1025.6mb 34f 31f
10:48pm 15 17 mph 1025.6mb 34f 31f
10:42pm 16 20 mph 1025.7mb 34f 31f
10:36pm 16 18 mph 1025.7mb 34f 31f
10:30pm 16 18 mph 1025.7mb 34f 31f
10:24pm 17 21 mph 1025.6mb 34f 31f
10:18pm 18 21 mph 1025.5mb 34f 31f
10:12pm 17 21 mph 1025.5mb 34f 31f
10:06pm 15 17 mph 1025.4mb 34f 31f
10:00pm 17 18 mph 1025.4mb 34f 31f
9:54pm 16 20 mph 1025.3mb 34f 31f
9:48pm 16 20 mph - - -
9:42pm 18 21 mph 1025.3mb 34f 31f
9:36pm 16 18 mph 1025.2mb 34f 31f
9:30pm  -  mph 1025.2mb 34f 31f
9:24pm 18 21 mph 1025.1mb 34f 31f
9:18pm 18 21 mph 1025.1mb 34f 31f
9:12pm 16 20 mph 1024.9mb 34f 32f
9:06pm 18 22 mph 1024.9mb 34f 32f
9:00pm 18 22 mph 1024.9mb - -
8:54pm 20 24 mph 1024.8mb - -
8:48pm 18 22 mph 1024.7mb 34f 32f
8:42pm 18 22 mph 1024.7mb 34f 32f
8:36pm 17 21 mph 1024.6mb 34f 32f
8:30pm 17 20 mph 1024.6mb 34f 32f
8:24pm 18 21 mph 1024.7mb 34f 32f
8:18pm 17 22 mph 1024.6mb - 32f
8:12pm 17 20 mph 1024.5mb - 32f
8:06pm 16 18 mph 1024.5mb - 32f
8:00pm 16 18 mph 1024.5mb 34f 32f
7:54pm 17 20 mph 1024.4mb 34f 32f
7:48pm 16 18 mph 1024.3mb 34f 32f
7:42pm 16 20 mph 1024.3mb 34f 32f
7:36pm 17 18 mph 1024.2mb 34f 32f
7:30pm 17 21 mph 1024.3mb 34f 32f
7:24pm 14 20 mph 1024.2mb 34f 32f
7:18pm 17 22 mph 1024.2mb 34f 32f
7:12pm 21 24 mph 1024.1mb 34f 33f
7:06pm 21 24 mph 1024mb 34f 33f
7:00pm 22 26 mph 1024.1mb 34f 33f
6:54pm 21 26 mph 1024mb 34f 33f
6:48pm 21 25 mph 1023.8mb 34f 33f
6:42pm 22 26 mph 1023.7mb 34f 33f
6:36pm 21 25 mph 1023.7mb 34f 33f
6:30pm 22 26 mph 1023.5mb 34f 33f
6:24pm 21 26 mph 1023.4mb 34f 33f
6:18pm 23 28 mph 1023.3mb 34f 33f
6:12pm 21 24 mph 1023.3mb 34f 33f
6:06pm 22 25 mph 1023.2mb 34f 33f
6:00pm 22 25 mph 1023.1mb 34f 33f
5:54pm 22 26 mph 1023mb 34f 33f
5:48pm 22 25 mph 1022.8mb 34f 33f
5:42pm 21 25 mph 1022.6mb 34f 33f
5:36pm 21 25 mph 1022.5mb 34f 33f
5:30pm 24 26 mph 1022.4mb 34f 33f
5:24pm 23 25 mph 1022.3mb 34f 33f
5:18pm 23 26 mph 1022.3mb 34f 33f
5:12pm 22 25 mph 1022.2mb 34f 33f
5:06pm 22 26 mph 1022.1mb 34f 33f
5:00pm  -  mph 1022.1mb 34f -
4:54pm  -  mph 1022mb 34f -
4:48pm 23 26 mph 1022mb 34f 34f
4:42pm 24 28 mph 1021.9mb 34f 34f
4:36pm 20 23 mph 1021.9mb 34f 33f
4:30pm 22 26 mph 1021.9mb 34f 33f
4:24pm 22 25 mph 1021.8mb 34f 33f
4:18pm  -  mph - 34f 33f
4:12pm  -  mph - 34f 33f
4:06pm  -  mph - 34f 33f
4:00pm 21 25 mph 1021.3mb 34f 33f
3:54pm 22 25 mph 1021.3mb 34f 33f
3:48pm 21 24 mph 1021.3mb 34f 33f
3:42pm 21 24 mph 1021.2mb 34f 33f
3:36pm 21 24 mph 1021.1mb 34f 33f
3:30pm 20 22 mph 1021.1mb 34f 33f
3:24pm 22 25 mph 1021.1mb 34f 33f
3:18pm 21 24 mph 1021mb 34f 33f
3:12pm 21 24 mph 1021mb 34f 33f
3:06pm 21 24 mph 1020.9mb 34f 32f
3:00pm 21 24 mph 1020.8mb 34f 33f
2:54pm 21 24 mph 1020.8mb 34f 33f
2:48pm 21 24 mph 1020.7mb 34f 32f
2:42pm 21 23 mph 1020.6mb 34f 32f
2:36pm 21 25 mph 1020.5mb 34f 32f
2:30pm 21 23 mph 1020.5mb 34f 32f
2:24pm 21 23 mph 1020.4mb 34f 32f
2:18pm 21 24 mph 1020.4mb 34f 31f
2:12pm 21 24 mph 1020.4mb 34f 31f
2:06pm 21 24 mph 1020.4mb 34f 31f
2:00pm 20 23 mph 1020.4mb 34f 31f
1:54pm 21 24 mph 1020.3mb 34f 31f
1:48pm 21 24 mph 1020.3mb 34f 31f
1:42pm 21 25 mph 1020.2mb 34f 31f
1:36pm 21 24 mph 1020.2mb 34f 31f
1:30pm 21 25 mph 1020.2mb 34f 31f
1:24pm 23 25 mph 1020.1mb 34f 31f
1:18pm 22 25 mph 1020mb 34f 31f
1:12pm 23 26 mph 1020.1mb 34f 31f
1:06pm 20 24 mph 1020.1mb 34f 30f
1:00pm  -  mph 1020.2mb 34f 30f
12:54pm  -  mph 1020.2mb 34f 30f
12:48pm 25 29 mph 1020mb 34f 30f
12:42pm 24 28 mph 1020mb 34f 30f
12:36pm 23 29 mph 1020mb 34f 30f
12:30pm 22 26 mph 1020.2mb 34f 30f
12:24pm 23 28 mph 1020.3mb 34f 29f
12:18pm 21 25 mph 1020.2mb 34f 29f
12:12pm 21 24 mph 1020.3mb 34f 29f
12:06pm 22 25 mph 1020.2mb 34f 29f
12:00pm 23 26 mph 1020.3mb 34f 29f
11:54am 22 24 mph 1020.4mb 34f 29f
11:48am 21 24 mph 1020.5mb 34f 29f
11:42am 23 28 mph 1020.5mb 34f 28f
11:36am 23 30 mph 1020.7mb 34f 28f
11:30am 21 25 mph 1020.8mb 34f 28f
11:24am 22 24 mph 1020.8mb 34f 28f
11:18am 20 24 mph 1020.9mb 34f 28f
11:12am 24 29 mph 1020.9mb 34f 27f
11:06am 23 26 mph 1020.9mb 34f 27f
11:00am  -  mph - - 27f
10:54am  -  mph - - 27f
10:48am 24 26 mph 1021mb 34f 27f
10:42am 26 31 mph 1020.9mb 34f 26f
10:36am 23 28 mph 1020.8mb 34f 27f
10:30am 24 28 mph 1020.8mb 34f 26f
10:24am 25 30 mph 1020.7mb 34f 26f
10:18am 25 31 mph 1020.8mb 34f 26f
10:12am 26 30 mph 1020.7mb 34f 26f
10:06am 24 29 mph 1020.7mb 33f 26f
10:00am 24 30 mph 1020.7mb 33f 26f
9:54am 24 30 mph 1020.6mb 33f 26f
9:48am 29 33 mph 1020.6mb 33f 25f
9:42am 26 31 mph 1020.6mb 33f 25f
9:36am 28 33 mph 1020.5mb 33f 25f
9:30am 26 33 mph 1020.5mb 33f 25f
9:24am 26 32 mph 1020.4mb 33f 25f
9:18am 24 32 mph 1020.3mb 33f 25f
9:12am 26 30 mph 1020.1mb 34f 25f
9:06am 26 30 mph 1020mb 34f 25f
9:00am 28 32 mph 1020mb 34f 25f
8:54am 6 20 mph 1020mb 34f 26f
8:48am 28 33 mph 1020mb 34f 24f
8:42am 28 32 mph 1020mb 34f 24f
8:36am 29 34 mph 1019.8mb 34f 24f
8:30am 29 33 mph 1019.8mb 34f 24f
8:24am 28 33 mph 1019.7mb 34f 24f
8:18am 28 37 mph 1019.7mb 34f 24f
8:12am 25 31 mph 1019.6mb 34f 24f
8:06am 29 36 mph 1019.4mb 34f 24f
8:00am 30 36 mph 1019.4mb 34f 24f
7:54am 28 33 mph 1019.3mb 34f 24f
7:48am 28 34 mph 1019.1mb 34f 24f
7:42am 29 34 mph 1019mb 34f 24f
7:36am 28 32 mph 1019mb 34f 24f
7:30am 28 33 mph 1018.8mb 34f 24f
7:24am 29 36 mph 1018.7mb 34f 24f
7:18am 26 34 mph 1018.6mb 34f 24f
7:12am 30 34 mph 1018.5mb 34f 24f
7:06am 30 34 mph 1018.4mb 34f 24f
7:00am 26 32 mph 1018.3mb 34f 24f
6:54am 28 32 mph 1018.2mb 34f 24f
6:48am 28 33 mph 1018.1mb 34f 24f
6:42am 29 36 mph 1018mb 34f 23f
6:36am 28 31 mph 1017.9mb 34f 23f
6:30am 29 33 mph 1017.9mb 34f 23f
6:24am 29 36 mph 1017.8mb 34f 24f
6:18am 28 34 mph 1017.7mb 34f 24f
6:12am 28 33 mph 1017.7mb 34f 24f
6:06am 28 33 mph 1017.6mb 34f 24f
6:00am 29 33 mph 1017.5mb 34f 24f
5:54am 26 33 mph 1017.3mb 34f 24f
5:48am 28 33 mph 1017.2mb - -
5:42am 24 32 mph 1017mb - -
5:36am 29 33 mph 1016.9mb - -
5:30am 28 33 mph 1016.9mb 34f 24f
5:24am 28 32 mph 1016.7mb 34f 24f
5:18am 28 32 mph 1016.7mb 34f 24f
5:12am 28 33 mph 1016.6mb 34f 24f
5:06am 28 34 mph 1016.5mb 34f 23f
5:00am 26 31 mph 1016.5mb 35f 24f
4:54am 26 31 mph 1016.4mb 35f 24f
4:48am 28 32 mph 1016.3mb 35f 23f
4:42am 29 33 mph 1016.2mb 35f 24f
4:36am 28 34 mph 1016.2mb 35f 23f
4:30am 25 29 mph 1016mb 35f 24f
4:24am 26 33 mph 1016mb 35f 24f
4:18am 26 31 mph 1015.9mb 35f 24f
4:12am 26 32 mph 1015.8mb 35f 24f
4:06am 28 33 mph 1015.7mb 35f 24f
4:00am 28 33 mph 1015.6mb 35f 24f
3:54am 28 32 mph 1015.6mb 35f 24f
3:48am 26 32 mph 1015.6mb 35f 24f
3:42am 29 33 mph 1015.6mb 35f 24f
3:36am 29 34 mph 1015.6mb 35f 24f
3:30am 26 33 mph 1015.6mb 35f 24f
3:24am 26 32 mph 1015.5mb 35f 24f
3:18am 29 34 mph 1015.5mb 35f 24f
3:12am 26 32 mph 1015.4mb 35f 25f
3:06am 25 33 mph 1015.3mb 35f 24f
3:00am 28 33 mph 1015.2mb 35f 24f
2:54am 30 34 mph 1015.1mb 35f 24f
2:48am 28 32 mph 1015mb 35f 25f
2:42am 28 33 mph 1014.9mb 35f 25f
2:36am 30 36 mph 1015mb 35f 25f
2:30am 30 37 mph 1014.9mb 35f 25f
2:24am 30 33 mph 1014.8mb 35f 25f
2:18am 28 31 mph 1014.7mb 35f 24f
2:12am 29 34 mph 1014.6mb 35f 25f
2:06am 30 36 mph 1014.4mb 35f 25f
2:00am 29 34 mph 1014.3mb 35f 25f
1:54am 30 34 mph 1014.1mb 35f 25f
1:48am 28 32 mph 1014mb 35f 26f
1:42am 30 34 mph 1013.8mb 35f 26f
1:36am 31 38 mph 1013.6mb 35f 26f
1:30am 28 33 mph 1013.4mb 35f 26f
1:24am 28 34 mph 1013.2mb 35f 27f
1:18am 26 33 mph 1013.1mb 35f 27f
1:12am 26 32 mph 1013mb 35f 27f
1:06am 30 37 mph 1012.9mb 35f 27f
1:00am 29 34 mph 1012.6mb 35f 27f
12:54am 31 34 mph 1012.5mb 35f 27f
12:48am 29 33 mph 1012.5mb 35f 28f
12:42am 28 33 mph 1012.5mb 35f 28f
12:36am 29 36 mph 1012.5mb 35f 28f
12:30am 29 33 mph 1012.3mb 35f 29f
12:24am 30 37 mph 1012.1mb 35f 29f
12:18am 30 34 mph 1012mb 35f 29f
12:12am 30 34 mph 1011.9mb 35f 29f
12:06am 29 34 mph 1011.9mb 35f 29f
12:00am 30 37 mph 1011.8mb 35f 30f
Tue 01/27 11:54pm 31 38 mph 1011.9mb 35f 30f
11:48pm 31 37 mph 1011.9mb 35f 30f
11:42pm 29 33 mph 1011.7mb 35f 31f
11:36pm 32 38 mph 1011.6mb 35f 31f
11:30pm 31 40 mph 1011.6mb 35f 31f
11:24pm 31 38 mph 1011.5mb 35f 31f
11:18pm 32 38 mph 1011.4mb 36f 31f
11:12pm 32 38 mph 1011.3mb 36f 31f
11:06pm 30 37 mph 1011.2mb 36f 32f
11:00pm 31 37 mph 1011.2mb 36f 32f
10:54pm 29 37 mph 1011.1mb 36f 32f
10:48pm 25 32 mph 1011mb 36f 32f
10:42pm 28 31 mph 1010.9mb 36f 32f
10:36pm 24 29 mph 1010.9mb 36f 32f
10:30pm 26 31 mph 1010.8mb 36f 32f
10:24pm 25 30 mph 1010.7mb 36f 32f
10:18pm 28 33 mph 1010.6mb 36f 32f
10:12pm 26 31 mph 1010.6mb 36f 32f
10:06pm 23 28 mph 1010.5mb 36f 32f
10:00pm 22 26 mph 1010.5mb 36f 32f
9:54pm 23 28 mph 1010.5mb 36f 32f
9:48pm 23 26 mph 1010.4mb 36f 32f
9:42pm 23 26 mph 1010.3mb 36f 32f
9:36pm 23 26 mph 1010.3mb 36f 33f
9:30pm 22 24 mph 1010.3mb 36f 33f
9:24pm 24 29 mph 1010.1mb 36f 33f
9:18pm 21 25 mph 1010.1mb 36f 33f
9:12pm 22 28 mph 1010mb 36f 33f
9:06pm 23 29 mph 1010mb 36f 33f
9:00pm 22 26 mph 1009.9mb 36f 33f
8:54pm 23 25 mph 1009.8mb 36f 33f
8:48pm 21 24 mph 1009.8mb 36f 33f
8:42pm 20 25 mph 1009.7mb 36f 33f
8:36pm 22 25 mph 1009.7mb 36f 33f
8:30pm 21 25 mph 1009.7mb 36f 33f
8:24pm 22 25 mph 1009.6mb 36f 33f
8:18pm 21 25 mph 1009.5mb 36f 33f
8:12pm 23 26 mph 1009.4mb 36f 33f
8:06pm 20 23 mph 1009.3mb 36f 33f
8:00pm 20 23 mph 1009.3mb 36f 33f
7:54pm 16 18 mph 1009.2mb 36f 33f
7:48pm 16 20 mph 1009mb 36f 32f
7:42pm 17 20 mph 1008.9mb 36f 32f
7:36pm 17 18 mph 1009mb 36f 33f
7:30pm 17 21 mph 1008.9mb 36f 33f
7:24pm 13 21 mph 1008.9mb 36f 33f
7:18pm 17 21 mph 1008.9mb 36f 33f
7:12pm 18 21 mph 1008.9mb 36f 33f
7:06pm 21 23 mph 1008.8mb 36f 33f
7:00pm 20 23 mph 1008.7mb 36f 33f
6:54pm 21 23 mph 1008.7mb 36f 33f
6:48pm 20 22 mph 1008.6mb 36f 33f
6:42pm 21 25 mph 1008.6mb 36f 33f
6:36pm 22 25 mph 1008.5mb 36f 33f
6:30pm 21 26 mph 1008.5mb 36f 33f
6:24pm 22 25 mph 1008.3mb 36f 33f
6:18pm 25 29 mph 1008.3mb 36f 33f
6:12pm 25 30 mph 1008.1mb 36f 33f
6:06pm 28 31 mph 1008.1mb 36f 33f
6:00pm 28 32 mph 1008mb 36f 33f
5:54pm 22 25 mph 1008mb 36f 33f
5:48pm 24 28 mph 1007.8mb 36f 33f
5:42pm 23 25 mph 1007.6mb 36f 33f
5:36pm 24 29 mph 1007.5mb 36f 33f
5:30pm 22 29 mph 1007.4mb 36f 33f
5:24pm 24 29 mph 1007.4mb 36f 33f
5:18pm 24 28 mph 1007.3mb 36f 33f
5:12pm 24 28 mph 1007.2mb 36f 33f
5:06pm 22 25 mph 1007.1mb 36f 33f
5:00pm 24 26 mph 1007mb 36f 33f
4:54pm 24 28 mph 1006.9mb 36f 33f
4:48pm 24 26 mph 1006.8mb 36f 33f
4:42pm 25 31 mph 1006.8mb 37f 34f
4:36pm 24 30 mph 1006.6mb 37f 34f
4:30pm 25 29 mph 1006.5mb 37f 34f
4:24pm 20 23 mph 1006.4mb 37f 34f